Time;durP1;ratioP1;P1;durP2;ratioP2;P2;SDS_P1;SDS_P2;PMS_P1;PMS_P2;Temp;Humidity;BMP_temperature;BMP_pressure;BME280_temperature;BME280_humidity;BME280_pressure;Samples;Min_cycle;Max_cycle;Signal;HPM_P1;HPM_P2
2023/07/16 00:01:01;;;;;;;7.53;4.60;;;24.30;97.90;;;;;;5044822;28;20389;-86
2023/07/16 00:03:28;;;;;;;6.38;4.07;;;24.20;98.00;;;;;;5041352;28;20151;-85
2023/07/16 00:05:56;;;;;;;6.97;4.50;;;24.20;97.80;;;;;;5019610;28;20056;-85
2023/07/16 00:08:23;;;;;;;5.38;4.30;;;24.20;97.80;;;;;;5047678;28;20415;-85
2023/07/16 00:10:50;;;;;;;6.25;4.75;;;24.20;97.90;;;;;;5033810;28;20056;-86
2023/07/16 00:13:17;;;;;;;5.47;4.97;;;24.20;97.60;;;;;;5040401;28;20181;-86
2023/07/16 00:15:45;;;;;;;7.47;5.43;;;24.10;97.50;;;;;;5035053;28;20719;-86
2023/07/16 00:18:12;;;;;;;5.25;4.22;;;24.10;97.60;;;;;;5030318;28;20139;-86
2023/07/16 00:20:39;;;;;;;7.05;5.28;;;24.10;98.10;;;;;;5020309;28;20970;-85
2023/07/16 00:23:07;;;;;;;8.55;5.43;;;24.10;97.80;;;;;;5035980;28;20052;-85
2023/07/16 00:25:35;;;;;;;6.30;5.25;;;24.00;98.00;;;;;;5019163;28;20048;-85
2023/07/16 00:28:02;;;;;;;7.13;5.40;;;24.00;98.20;;;;;;5032760;28;20468;-86
2023/07/16 00:30:31;;;;;;;7.18;5.20;;;24.00;98.20;;;;;;5037773;28;20131;-86
2023/07/16 00:32:58;;;;;;;8.88;5.38;;;23.90;98.30;;;;;;5055321;28;22176;-85
2023/07/16 00:35:25;;;;;;;8.60;4.47;;;23.90;98.50;;;;;;5042054;28;20053;-85
2023/07/16 00:37:52;;;;;;;7.85;5.07;;;23.90;98.50;;;;;;5047706;28;20052;-86
2023/07/16 00:40:19;;;;;;;5.43;4.60;;;23.90;98.60;;;;;;5018648;28;20048;-86
2023/07/16 00:42:47;;;;;;;7.78;5.00;;;23.80;99.10;;;;;;5035349;28;20526;-86
2023/07/16 00:45:14;;;;;;;9.88;5.50;;;23.80;98.70;;;;;;5021405;28;20435;-85
2023/07/16 00:47:43;;;;;;;7.82;5.38;;;23.80;98.50;;;;;;5048402;28;20056;-87
2023/07/16 00:50:28;;;;;;;6.70;4.97;;;23.80;98.40;;;;;;5041774;28;20166;-85
2023/07/16 00:52:56;;;;;;;8.48;5.47;;;23.80;98.90;;;;;;5018263;28;20622;-86
2023/07/16 00:55:24;;;;;;;10.25;5.30;;;23.80;99.20;;;;;;5015817;28;20045;-86
2023/07/16 00:57:53;;;;;;;6.43;5.72;;;23.80;98.90;;;;;;5044330;28;20143;-85
2023/07/16 01:00:21;;;;;;;6.90;4.97;;;23.70;98.70;;;;;;5051216;28;20071;-86
2023/07/16 01:02:51;;;;;;;7.80;4.47;;;23.60;99.00;;;;;;5029557;28;20064;-86
2023/07/16 01:32:11;;;;;;;;;;;23.40;99.00;;;;;;5059145;23;20362;-85
2023/07/16 01:34:40;;;;;;;9.75;5.57;;;23.40;98.90;;;;;;4924550;28;19930;-85
2023/07/16 03:56:36;;;;;;;8.18;6.40;;;22.50;99.90;;;;;;5766914;24;20047;31
2023/07/16 04:43:44;;;;;;;6.25;4.47;;;23.10;97.70;;;;;;4603894;30;20114;-83
2023/07/16 05:12:00;;;;;;;5.55;4.68;;;23.90;96.10;;;;;;4744133;29;20072;-85
2023/07/16 05:14:28;;;;;;;7.35;4.80;;;24.10;95.80;;;;;;4749725;29;20064;-88
2023/07/16 05:16:56;;;;;;;9.20;4.43;;;24.20;95.50;;;;;;4750832;29;20075;-84
2023/07/16 05:19:23;;;;;;;5.97;4.45;;;24.20;94.70;;;;;;4732198;29;20154;-84
2023/07/16 05:21:51;;;;;;;5.43;3.75;;;24.40;94.50;;;;;;4720115;30;20052;-84
2023/07/16 05:24:18;;;;;;;6.55;4.88;;;24.50;94.00;;;;;;4737525;30;20704;-84
2023/07/16 05:26:45;;;;;;;5.03;3.92;;;24.60;93.20;;;;;;4748167;29;20524;-84
2023/07/16 05:29:12;;;;;;;5.32;4.18;;;24.80;93.40;;;;;;4739140;30;20052;-85
2023/07/16 05:31:39;;;;;;;7.55;4.25;;;24.90;92.80;;;;;;4730409;30;20120;-84
2023/07/16 05:34:07;;;;;;;5.53;3.95;;;25.00;92.30;;;;;;4724385;30;20072;-84
2023/07/16 05:36:34;;;;;;;6.85;4.20;;;25.10;92.40;;;;;;4733866;30;20059;-84
2023/07/16 05:39:01;;;;;;;8.80;4.80;;;25.30;92.30;;;;;;4728429;30;20055;-83
2023/07/16 05:41:28;;;;;;;4.47;3.95;;;25.40;91.80;;;;;;4733024;30;20056;-83
2023/07/16 05:43:55;;;;;;;5.70;3.67;;;25.40;91.90;;;;;;4738687;29;20064;-83
2023/07/16 05:46:22;;;;;;;4.35;3.20;;;25.60;91.70;;;;;;4743050;29;20062;-84
2023/07/16 05:48:51;;;;;;;4.32;3.92;;;25.80;91.40;;;;;;4744213;29;20741;-84
2023/07/16 05:51:19;;;;;;;6.22;3.63;;;25.90;91.30;;;;;;4746759;29;20737;-83
2023/07/16 05:53:46;;;;;;;4.88;3.58;;;26.00;90.80;;;;;;4728568;30;20135;-83
2023/07/16 05:56:13;;;;;;;5.38;4.28;;;26.10;90.50;;;;;;4745621;29;20110;-83
2023/07/16 05:58:41;;;;;;;4.05;3.65;;;26.30;90.70;;;;;;4726621;30;22360;-84
2023/07/16 06:01:08;;;;;;;5.90;3.28;;;26.30;89.60;;;;;;4726196;30;20067;-85
2023/07/16 06:03:36;;;;;;;3.00;2.65;;;26.40;89.50;;;;;;4713093;30;20528;-84
2023/07/16 06:06:03;;;;;;;4.68;3.65;;;26.70;90.00;;;;;;4734214;30;20106;-85
2023/07/16 06:08:30;;;;;;;4.38;3.10;;;26.80;88.20;;;;;;4728299;30;20064;-84
2023/07/16 06:10:57;;;;;;;3.10;2.72;;;27.00;87.80;;;;;;4717845;30;20056;-84
2023/07/16 06:13:24;;;;;;;7.03;3.50;;;27.10;86.70;;;;;;4715249;30;20166;-85
2023/07/16 06:15:51;;;;;;;4.05;3.65;;;27.10;85.50;;;;;;4720554;30;20184;-84
2023/07/16 06:18:19;;;;;;;5.22;3.75;;;27.20;85.70;;;;;;4726540;30;20059;-80
2023/07/16 06:20:48;;;;;;;3.35;3.00;;;27.30;84.70;;;;;;4721932;30;20052;-85
2023/07/16 06:23:16;;;;;;;4.22;2.95;;;27.40;84.00;;;;;;4734163;30;20716;-84
2023/07/16 06:25:48;;;;;;;7.32;3.03;;;27.60;84.40;;;;;;4737475;30;20063;-84
2023/07/16 06:28:15;;;;;;;5.57;3.17;;;27.70;83.00;;;;;;4715525;30;20532;-85
2023/07/16 06:30:42;;;;;;;3.60;3.05;;;27.70;83.00;;;;;;4726513;30;20537;-83
2023/07/16 06:33:09;;;;;;;6.03;3.03;;;27.90;82.80;;;;;;4716403;30;20059;-82
2023/07/16 06:35:38;;;;;;;4.65;3.00;;;28.00;82.50;;;;;;4729541;30;20405;-83
2023/07/16 06:38:05;;;;;;;4.53;3.22;;;28.00;80.90;;;;;;4707381;30;20051;-82
2023/07/16 06:40:32;;;;;;;4.05;2.92;;;28.10;81.20;;;;;;4717579;30;20054;-83
2023/07/16 06:42:59;;;;;;;5.00;2.80;;;28.30;81.40;;;;;;4720884;30;20056;-83
2023/07/16 06:45:26;;;;;;;4.68;2.50;;;28.50;82.00;;;;;;4710294;30;20435;-82
2023/07/16 06:47:53;;;;;;;4.93;2.50;;;28.60;80.50;;;;;;4717686;30;20906;-83
2023/07/16 06:50:21;;;;;;;2.70;2.42;;;28.60;78.90;;;;;;4715621;30;20063;-83
2023/07/16 06:52:48;;;;;;;7.32;3.00;;;28.70;80.10;;;;;;4730589;30;20145;-83
2023/07/16 06:55:15;;;;;;;3.88;2.67;;;28.80;77.50;;;;;;4712456;30;20060;-83
2023/07/16 06:57:42;;;;;;;5.07;2.95;;;28.90;78.60;;;;;;4720501;30;20048;-81
2023/07/16 07:00:12;;;;;;;4.72;2.85;;;29.00;78.40;;;;;;4710961;30;20107;-82
2023/07/16 07:02:39;;;;;;;5.45;3.00;;;29.10;78.30;;;;;;4705686;30;20514;-82
2023/07/16 07:05:07;;;;;;;5.35;2.85;;;29.30;78.30;;;;;;4729808;30;20123;-82
2023/07/16 07:07:34;;;;;;;5.43;2.88;;;29.40;78.20;;;;;;4729410;30;20540;-83
2023/07/16 07:10:01;;;;;;;6.57;3.00;;;29.40;76.90;;;;;;4737693;29;20465;-83
2023/07/16 07:12:29;;;;;;;2.92;2.63;;;29.50;76.90;;;;;;4751066;29;20067;-82
2023/07/16 07:14:56;;;;;;;7.65;3.70;;;29.50;76.30;;;;;;4758836;29;20066;-80
2023/07/16 07:17:23;;;;;;;5.93;3.40;;;29.70;76.30;;;;;;4731496;29;20055;-82
2023/07/16 07:19:50;;;;;;;3.55;2.03;;;29.90;76.90;;;;;;4729649;29;20739;-81
2023/07/16 07:22:17;;;;;;;4.63;3.17;;;30.00;77.00;;;;;;4746730;29;20066;-80
2023/07/16 07:24:49;;;;;;;2.50;2.20;;;30.10;75.40;;;;;;4729582;29;20055;-81
2023/07/16 07:27:16;;;;;;;4.70;2.75;;;30.20;75.70;;;;;;4717487;29;20547;-82
2023/07/16 07:29:43;;;;;;;3.95;2.72;;;30.30;76.50;;;;;;4745415;29;20137;-82
2023/07/16 07:32:10;;;;;;;5.43;2.53;;;30.40;75.70;;;;;;4730110;29;20059;-81
2023/07/16 07:34:39;;;;;;;4.15;2.58;;;30.40;74.80;;;;;;4745926;29;20047;-79
2023/07/16 07:37:06;;;;;;;4.30;2.55;;;30.60;75.80;;;;;;4740418;29;20058;-81
2023/07/16 07:39:33;;;;;;;5.68;2.22;;;30.70;75.80;;;;;;4747214;29;20051;-82
2023/07/16 07:42:00;;;;;;;3.63;2.25;;;30.60;74.20;;;;;;4731843;29;20539;-80
2023/07/16 07:44:27;;;;;;;3.53;2.60;;;30.80;75.50;;;;;;4754402;29;20132;-80
2023/07/16 07:46:54;;;;;;;4.07;2.72;;;30.80;74.50;;;;;;4733772;29;22759;-82
2023/07/16 07:49:22;;;;;;;6.28;2.60;;;30.80;75.20;;;;;;4735667;29;20051;-79
2023/07/16 07:51:50;;;;;;;4.25;2.80;;;30.90;74.30;;;;;;4739589;29;20052;-81
2023/07/16 07:54:17;;;;;;;6.10;2.83;;;30.90;74.40;;;;;;4727035;29;20174;-80
2023/07/16 07:56:46;;;;;;;5.80;2.40;;;31.00;74.70;;;;;;4752429;29;20120;-81
2023/07/16 07:59:13;;;;;;;3.30;2.22;;;31.10;75.60;;;;;;4732166;29;20059;-85
2023/07/16 08:01:40;;;;;;;2.85;2.28;;;31.20;75.20;;;;;;4729489;29;20055;-82
2023/07/16 08:04:07;;;;;;;4.78;3.03;;;31.20;74.40;;;;;;4741589;29;20134;-80
2023/07/16 08:06:35;;;;;;;3.75;2.50;;;31.10;74.90;;;;;;4726990;29;20354;-78
2023/07/16 08:09:02;;;;;;;4.63;2.58;;;31.20;74.60;;;;;;4755396;29;20043;-82
2023/07/16 08:11:29;;;;;;;5.22;2.70;;;31.20;73.90;;;;;;4720953;29;20063;-80
2023/07/16 08:13:56;;;;;;;3.03;2.72;;;31.30;73.50;;;;;;4718466;29;20528;-81
2023/07/16 08:16:23;;;;;;;3.58;2.40;;;31.40;74.00;;;;;;4739499;29;20071;-80
2023/07/16 08:18:50;;;;;;;4.63;2.75;;;31.50;73.50;;;;;;4742178;29;22561;-82
2023/07/16 08:21:19;;;;;;;3.67;2.47;;;31.60;74.00;;;;;;4718666;29;20190;-81
2023/07/16 08:23:50;;;;;;;3.67;2.35;;;31.70;74.00;;;;;;4734537;29;20106;-78
2023/07/16 08:26:17;;;;;;;3.90;2.00;;;31.70;72.20;;;;;;4739556;29;20063;-80
2023/07/16 08:28:45;;;;;;;5.28;2.63;;;31.70;73.20;;;;;;4742973;29;20058;-83
2023/07/16 08:31:13;;;;;;;4.55;2.70;;;31.70;72.90;;;;;;4727075;29;20055;-83
2023/07/16 08:33:40;;;;;;;3.30;2.38;;;31.70;72.50;;;;;;4728283;29;20062;-82
2023/07/16 08:36:09;;;;;;;4.32;2.53;;;31.70;71.60;;;;;;4732358;29;20165;-82
2023/07/16 08:38:36;;;;;;;5.70;2.78;;;31.80;72.00;;;;;;4745544;29;20079;-82
2023/07/16 08:41:03;;;;;;;4.53;2.67;;;31.90;71.60;;;;;;4744560;29;20427;-83
2023/07/16 08:43:32;;;;;;;3.13;2.13;;;32.00;72.00;;;;;;4737412;29;20142;-83
2023/07/16 08:46:01;;;;;;;3.58;2.53;;;31.90;71.60;;;;;;4724760;29;20097;-81
2023/07/16 08:48:29;;;;;;;5.03;2.90;;;32.00;72.10;;;;;;4743415;29;20522;-80
2023/07/16 08:50:58;;;;;;;5.53;3.50;;;32.10;72.00;;;;;;4761913;29;20147;-82
2023/07/16 08:53:25;;;;;;;6.05;4.20;;;32.00;70.70;;;;;;4723971;29;20108;-81
2023/07/16 08:55:52;;;;;;;4.57;3.90;;;32.10;71.50;;;;;;4741862;29;20525;-82
2023/07/16 08:58:24;;;;;;;6.33;4.03;;;32.20;71.50;;;;;;4731410;29;20063;-84
2023/07/16 09:00:52;;;;;;;6.28;4.15;;;32.30;72.00;;;;;;4733522;29;20051;-81
2023/07/16 09:03:20;;;;;;;5.88;5.07;;;32.30;71.20;;;;;;4725038;29;20059;-81
2023/07/16 09:05:47;;;;;;;5.25;3.38;;;32.20;70.60;;;;;;4724720;29;20059;-80
2023/07/16 09:08:14;;;;;;;6.43;5.00;;;32.30;72.70;;;;;;4725624;29;21519;-82
2023/07/16 09:10:42;;;;;;;6.40;5.05;;;32.30;71.70;;;;;;4740595;29;20143;-84
2023/07/16 09:13:10;;;;;;;6.75;5.03;;;32.30;71.30;;;;;;4728319;30;20040;-83
2023/07/16 09:15:38;;;;;;;7.45;4.95;;;32.30;71.50;;;;;;4715475;30;20785;-81
2023/07/16 09:18:05;;;;;;;9.30;5.35;;;32.20;71.80;;;;;;4714843;30;20090;-81
2023/07/16 09:20:33;;;;;;;6.65;5.70;;;32.30;71.80;;;;;;4729730;30;20059;-83
2023/07/16 09:23:00;;;;;;;7.88;5.55;;;32.30;71.50;;;;;;4709422;30;20091;-80
2023/07/16 09:25:29;;;;;;;7.50;6.15;;;32.20;70.90;;;;;;4706887;30;20068;-81
2023/07/16 09:28:01;;;;;;;5.97;5.38;;;32.30;70.90;;;;;;4729248;30;20082;-81
2023/07/16 09:30:35;;;;;;;7.68;5.65;;;32.30;72.50;;;;;;4709544;30;20063;-82
2023/07/16 09:33:15;;;;;;;8.55;6.03;;;32.40;71.00;;;;;;4717350;30;20409;-81
2023/07/16 09:35:43;;;;;;;7.53;6.78;;;32.40;71.50;;;;;;4723996;30;20059;-79
2023/07/16 09:38:10;;;;;;;9.63;6.20;;;32.50;70.50;;;;;;4722849;30;20067;-82
2023/07/16 09:40:39;;;;;;;10.00;7.03;;;32.20;71.90;;;;;;4727195;30;20059;-79
2023/07/16 09:43:06;;;;;;;8.07;6.10;;;32.30;71.50;;;;;;4730924;30;20052;-82
2023/07/16 09:45:34;;;;;;;8.45;6.57;;;32.50;72.00;;;;;;4724938;30;20051;-78
2023/07/16 09:48:04;;;;;;;7.25;6.07;;;31.90;71.50;;;;;;4718669;30;21066;-79
2023/07/16 09:50:36;;;;;;;7.27;6.37;;;31.80;72.90;;;;;;4712941;30;20194;-79
2023/07/16 09:53:04;;;;;;;7.78;6.00;;;31.80;74.50;;;;;;4724801;30;20144;-81
2023/07/16 09:55:34;;;;;;;8.57;6.13;;;31.60;73.90;;;;;;4717126;30;20071;-79
2023/07/16 09:58:10;;;;;;;6.57;5.57;;;31.70;73.70;;;;;;4739430;30;20052;-79
2023/07/16 10:00:40;;;;;;;7.03;6.30;;;31.80;74.40;;;;;;4747343;29;20055;-80
2023/07/16 10:03:08;;;;;;;10.10;6.63;;;31.70;72.90;;;;;;4751409;29;20069;-79
2023/07/16 10:05:37;;;;;;;13.25;7.07;;;32.00;73.30;;;;;;4735155;30;20140;-79
2023/07/16 10:08:05;;;;;;;7.20;6.43;;;32.20;72.40;;;;;;4725811;30;20116;-79
2023/07/16 10:10:58;;;;;;;9.43;7.10;;;32.50;72.30;;;;;;4736674;29;20063;-80
2023/07/16 10:13:27;;;;;;;9.07;7.15;;;32.60;70.80;;;;;;4747393;29;20065;-80
2023/07/16 10:15:58;;;;;;;7.05;6.35;;;32.70;70.90;;;;;;4738634;29;20193;-79
2023/07/16 10:18:34;;;;;;;9.82;7.65;;;32.80;71.00;;;;;;4761994;29;20048;-81
2023/07/16 10:21:07;;;;;;;9.18;7.38;;;32.40;70.10;;;;;;4727939;29;20055;-79
2023/07/16 10:23:40;;;;;;;9.85;7.72;;;32.40;69.90;;;;;;4754862;29;20058;-80
2023/07/16 10:26:10;;;;;;;8.95;7.53;;;32.70;70.70;;;;;;4745769;29;20122;-79
2023/07/16 10:28:38;;;;;;;8.02;7.00;;;32.80;70.90;;;;;;4754592;29;20066;-79
2023/07/16 10:31:07;;;;;;;11.20;7.35;;;32.90;69.80;;;;;;4760701;29;20437;-80
2023/07/16 10:33:38;;;;;;;11.18;7.38;;;32.80;68.50;;;;;;4742625;29;20052;-79
2023/07/16 10:36:05;;;;;;;12.63;7.40;;;32.90;69.40;;;;;;4761024;29;20058;-82
2023/07/16 10:38:44;;;;;;;7.35;6.07;;;32.70;67.60;;;;;;4746158;29;20500;-80
2023/07/16 10:41:12;;;;;;;9.05;6.13;;;32.70;66.00;;;;;;4746799;29;20050;-79
2023/07/16 10:43:40;;;;;;;7.45;6.50;;;33.10;67.60;;;;;;4743135;29;20051;-80
2023/07/16 10:46:09;;;;;;;11.48;5.32;;;33.10;67.10;;;;;;4762466;29;20068;-80
2023/07/16 10:48:36;;;;;;;5.93;5.13;;;33.10;65.00;;;;;;4738330;29;20054;-81
2023/07/16 10:51:03;;;;;;;7.47;5.00;;;33.10;63.90;;;;;;4757690;29;20101;-81
2023/07/16 10:53:30;;;;;;;5.65;4.63;;;33.00;63.20;;;;;;4756079;29;20163;-81
2023/07/16 10:56:01;;;;;;;5.70;5.05;;;33.10;65.40;;;;;;4739535;29;20055;-80
2023/07/16 10:58:28;;;;;;;5.60;5.00;;;33.10;66.20;;;;;;4727162;29;20086;-79
2023/07/16 11:00:55;;;;;;;6.20;5.03;;;33.00;65.70;;;;;;4752053;29;20889;-81
2023/07/16 11:03:22;;;;;;;6.50;5.22;;;33.10;65.40;;;;;;4741944;29;20063;-79
2023/07/16 11:05:50;;;;;;;6.68;4.65;;;33.00;64.80;;;;;;4755231;29;20078;-81
2023/07/16 11:08:24;;;;;;;5.28;4.65;;;33.10;65.30;;;;;;4738546;29;20063;-81
2023/07/16 11:10:58;;;;;;;6.65;5.10;;;33.10;65.20;;;;;;4745841;29;20103;-81
2023/07/16 11:13:30;;;;;;;6.20;5.60;;;33.20;66.00;;;;;;4729995;29;20103;-80
2023/07/16 11:16:10;;;;;;;6.40;5.40;;;33.10;65.70;;;;;;4724382;29;20843;-80
2023/07/16 11:18:37;;;;;;;8.13;5.25;;;33.30;66.90;;;;;;4738370;29;20496;-79
2023/07/16 11:21:05;;;;;;;6.35;5.80;;;33.20;66.30;;;;;;4756155;29;20191;-80
2023/07/16 11:23:36;;;;;;;6.28;5.68;;;33.20;66.90;;;;;;4754227;29;20119;-79
2023/07/16 11:26:04;;;;;;;5.80;5.13;;;33.10;66.10;;;;;;4744278;29;20062;-79
2023/07/16 11:28:39;;;;;;;6.50;4.47;;;33.30;64.80;;;;;;4759700;29;20056;-80
2023/07/16 11:31:15;;;;;;;5.97;4.60;;;33.20;64.70;;;;;;4753265;29;20090;-80
2023/07/16 11:33:43;;;;;;;10.43;4.35;;;33.20;65.20;;;;;;4736399;29;20051;-82
2023/07/16 11:36:12;;;;;;;6.60;4.40;;;33.10;62.90;;;;;;4752339;29;20113;-82
2023/07/16 11:38:39;;;;;;;5.82;5.20;;;33.20;65.40;;;;;;4735778;29;20485;-81
2023/07/16 11:41:06;;;;;;;6.03;4.78;;;33.20;64.20;;;;;;4732297;29;20051;-82
2023/07/16 11:43:38;;;;;;;6.18;4.45;;;33.10;64.80;;;;;;4719659;29;20138;-82
2023/07/16 11:46:17;;;;;;;4.97;4.03;;;33.10;64.60;;;;;;4768485;29;20062;-82
2023/07/16 11:48:45;;;;;;;7.40;3.95;;;33.20;64.20;;;;;;4765181;29;20060;-83
2023/07/16 11:51:12;;;;;;;5.10;4.25;;;33.20;63.80;;;;;;4753660;29;20190;-81
2023/07/16 11:53:39;;;;;;;6.93;3.90;;;33.10;63.70;;;;;;4757510;29;20044;-79
2023/07/16 11:56:07;;;;;;;6.35;4.43;;;33.10;64.30;;;;;;4742196;29;20157;-82
2023/07/16 11:58:34;;;;;;;6.40;4.10;;;33.10;63.10;;;;;;4758551;29;20376;-80
2023/07/16 12:01:01;;;;;;;4.45;3.60;;;33.10;63.90;;;;;;4767108;29;20060;-83
2023/07/16 12:03:29;;;;;;;5.40;4.07;;;33.10;63.90;;;;;;4764359;29;20066;-81
2023/07/16 12:05:57;;;;;;;4.68;4.05;;;33.00;64.50;;;;;;4768519;29;20063;-81
2023/07/16 12:08:24;;;;;;;5.10;3.70;;;33.00;64.80;;;;;;4746081;29;20058;-81
2023/07/16 12:10:51;;;;;;;4.78;3.47;;;33.10;64.00;;;;;;4763443;29;20072;-81
2023/07/16 12:13:18;;;;;;;5.00;3.78;;;33.10;63.70;;;;;;4727139;30;20198;-80
2023/07/16 12:15:46;;;;;;;6.82;3.97;;;33.30;64.80;;;;;;4725942;30;20055;-81
2023/07/16 12:18:13;;;;;;;4.18;3.70;;;33.40;64.90;;;;;;4740193;30;20059;-81
2023/07/16 12:20:40;;;;;;;4.88;3.15;;;33.40;65.40;;;;;;4725801;30;20083;-82
2023/07/16 12:23:07;;;;;;;5.63;4.25;;;33.40;65.00;;;;;;4740012;30;20047;-81
2023/07/16 12:25:35;;;;;;;4.47;3.83;;;33.00;64.50;;;;;;4735727;30;20197;-82
2023/07/16 12:28:03;;;;;;;6.55;3.40;;;32.70;64.40;;;;;;4740972;30;20058;-81
2023/07/16 12:30:30;;;;;;;7.63;3.35;;;32.70;64.50;;;;;;4738608;30;20064;-82
2023/07/16 12:32:57;;;;;;;5.75;4.97;;;33.00;65.30;;;;;;4726974;30;20831;-82
2023/07/16 12:35:24;;;;;;;7.43;6.25;;;33.10;65.40;;;;;;4733039;30;20044;-83
2023/07/16 12:37:51;;;;;;;6.53;4.82;;;33.30;64.40;;;;;;4732156;30;20136;-82
2023/07/16 12:40:19;;;;;;;6.68;5.07;;;33.20;64.00;;;;;;4731505;30;20141;-82
2023/07/16 12:42:46;;;;;;;9.43;4.72;;;33.20;64.00;;;;;;4722690;30;20070;-82
2023/07/16 12:45:13;;;;;;;9.38;4.15;;;33.30;64.80;;;;;;4726943;30;20147;-80
2023/07/16 12:47:40;;;;;;;6.78;4.20;;;33.20;64.80;;;;;;4721884;30;20060;-82
2023/07/16 12:50:08;;;;;;;6.45;4.15;;;33.30;65.40;;;;;;4743665;30;20048;-82
2023/07/16 12:52:35;;;;;;;4.15;3.75;;;33.40;64.90;;;;;;4736965;30;20052;-80
2023/07/16 12:55:03;;;;;;;5.68;4.10;;;33.20;64.80;;;;;;4733920;30;20146;-80
2023/07/16 12:57:30;;;;;;;5.05;4.00;;;32.90;65.50;;;;;;4731206;30;20143;-82
2023/07/16 12:59:57;;;;;;;8.93;4.82;;;32.90;65.20;;;;;;4730892;30;20059;-83
2023/07/16 13:02:25;;;;;;;7.53;4.53;;;32.90;65.90;;;;;;4726555;30;20127;-82
2023/07/16 13:04:52;;;;;;;6.45;4.38;;;33.00;65.00;;;;;;4745822;30;20063;-81
2023/07/16 13:07:20;;;;;;;6.00;4.15;;;33.00;65.80;;;;;;4726741;30;20463;-82
2023/07/16 13:09:47;;;;;;;7.45;4.60;;;33.10;65.60;;;;;;4732771;29;20489;-83
2023/07/16 13:12:18;;;;;;;6.88;4.00;;;33.20;65.50;;;;;;4741842;29;20066;-82
2023/07/16 13:14:45;;;;;;;6.63;4.35;;;33.30;65.20;;;;;;4730832;29;20058;-82
2023/07/16 13:17:14;;;;;;;7.57;4.75;;;33.30;65.00;;;;;;4756944;29;20048;-83
2023/07/16 13:19:42;;;;;;;6.40;4.40;;;33.40;64.90;;;;;;4765721;29;20055;-82
2023/07/16 13:22:12;;;;;;;5.13;4.60;;;33.40;64.10;;;;;;4753042;30;20047;-80
2023/07/16 13:24:40;;;;;;;10.52;5.25;;;33.40;64.60;;;;;;4751852;29;20170;-81
2023/07/16 13:27:19;;;;;;;5.10;4.60;;;33.40;65.10;;;;;;4763280;29;20051;-82
2023/07/16 13:29:47;;;;;;;5.35;4.10;;;33.20;64.80;;;;;;4742114;29;20444;-82
2023/07/16 13:32:14;;;;;;;5.72;3.88;;;33.20;64.90;;;;;;4763868;29;20101;-82
2023/07/16 13:34:42;;;;;;;5.05;4.00;;;33.10;65.50;;;;;;4762245;30;20119;-82
2023/07/16 13:37:11;;;;;;;7.53;4.50;;;32.90;66.20;;;;;;4772935;29;20054;-81
2023/07/16 13:39:38;;;;;;;8.43;4.45;;;32.60;66.80;;;;;;4757304;29;20184;-83
2023/07/16 13:42:06;;;;;;;6.00;4.40;;;32.50;67.10;;;;;;4764652;29;20059;-81
2023/07/16 13:44:49;;;;;;;4.88;4.35;;;32.60;66.80;;;;;;4775895;29;20083;-84
2023/07/16 13:47:17;;;;;;;8.05;4.25;;;32.90;66.90;;;;;;4763302;29;20051;-84
2023/07/16 13:49:46;;;;;;;5.78;4.15;;;33.10;66.50;;;;;;4727459;29;20067;-82
2023/07/16 13:52:14;;;;;;;7.18;4.55;;;33.30;65.70;;;;;;4747703;29;20057;-83
2023/07/16 13:55:03;;;;;;;5.57;4.10;;;33.40;65.90;;;;;;4778452;29;20055;-82
2023/07/16 13:57:31;;;;;;;5.68;4.40;;;33.50;64.80;;;;;;4772425;29;20055;-82
2023/07/16 14:00:00;;;;;;;7.28;4.85;;;33.50;65.40;;;;;;4749196;29;20060;-81
2023/07/16 14:02:31;;;;;;;5.50;4.13;;;33.70;66.60;;;;;;4738889;29;20821;-81
2023/07/16 14:04:58;;;;;;;7.25;4.18;;;33.70;65.00;;;;;;4760213;29;20536;-80
2023/07/16 14:07:26;;;;;;;8.43;4.47;;;33.70;65.30;;;;;;4736390;29;20063;-83
2023/07/16 14:09:54;;;;;;;6.93;4.03;;;33.70;64.50;;;;;;4744553;29;20113;-80
2023/07/16 14:12:22;;;;;;;7.07;3.72;;;33.70;65.20;;;;;;4749549;29;20059;-81
2023/07/16 14:14:49;;;;;;;6.55;4.60;;;33.70;64.50;;;;;;4726870;29;20059;-81
2023/07/16 14:17:17;;;;;;;5.80;3.63;;;33.60;64.80;;;;;;4726675;29;20062;-81
2023/07/16 14:19:45;;;;;;;6.18;4.45;;;33.60;65.50;;;;;;4754754;29;20067;-80
2023/07/16 14:22:14;;;;;;;6.82;4.35;;;33.50;64.50;;;;;;4755504;29;20057;-81
2023/07/16 14:24:43;;;;;;;7.55;3.90;;;33.60;65.00;;;;;;4758843;29;20074;-81
2023/07/16 14:27:13;;;;;;;4.85;3.83;;;33.50;65.50;;;;;;4749245;29;20435;-80
2023/07/16 14:29:42;;;;;;;5.15;4.05;;;33.50;65.40;;;;;;4750842;29;20062;-80
2023/07/16 14:32:31;;;;;;;6.47;3.95;;;33.40;65.30;;;;;;4748379;29;20051;-81
2023/07/16 14:35:00;;;;;;;7.25;4.05;;;33.50;65.90;;;;;;4730226;29;20066;-80
2023/07/16 14:37:28;;;;;;;8.77;4.25;;;33.50;66.00;;;;;;4737688;29;20087;-80
2023/07/16 14:39:55;;;;;;;7.95;4.50;;;33.40;65.80;;;;;;4741830;29;20051;-84
2023/07/16 14:42:23;;;;;;;11.13;4.97;;;33.40;66.10;;;;;;4735142;29;20059;-79
2023/07/16 14:44:51;;;;;;;8.82;4.00;;;33.30;65.60;;;;;;4746689;29;20067;-80
2023/07/16 14:47:19;;;;;;;6.22;4.50;;;33.20;65.00;;;;;;4732354;29;20876;-81
2023/07/16 14:49:46;;;;;;;4.80;4.13;;;33.20;65.40;;;;;;4735805;29;20083;-82
2023/07/16 14:52:14;;;;;;;5.70;4.25;;;33.10;65.70;;;;;;4777311;29;20059;-81
2023/07/16 14:54:41;;;;;;;7.65;4.40;;;33.10;66.20;;;;;;4779942;29;20035;-80
2023/07/16 14:57:09;;;;;;;6.18;4.25;;;33.10;66.70;;;;;;4764592;29;20539;-81
2023/07/16 14:59:37;;;;;;;5.90;3.90;;;33.00;65.60;;;;;;4760667;29;20059;-82
2023/07/16 15:02:05;;;;;;;8.93;4.45;;;33.00;66.50;;;;;;4757838;30;20121;-81
2023/07/16 15:04:32;;;;;;;4.85;4.38;;;33.00;66.70;;;;;;4776558;29;20059;-81
2023/07/16 15:07:00;;;;;;;4.70;4.18;;;33.00;66.40;;;;;;4746761;29;20056;-82
2023/07/16 15:09:28;;;;;;;5.22;4.22;;;32.90;65.80;;;;;;4758420;30;20136;-80
2023/07/16 15:11:56;;;;;;;6.07;4.50;;;32.90;66.00;;;;;;4767913;29;20176;-81
2023/07/16 15:14:23;;;;;;;6.07;3.80;;;32.90;65.90;;;;;;4781927;29;20076;-81
2023/07/16 15:16:51;;;;;;;7.25;3.97;;;32.90;66.30;;;;;;4767161;29;20150;-82
2023/07/16 15:19:19;;;;;;;6.25;4.25;;;32.80;67.40;;;;;;4746696;29;20066;-80
2023/07/16 15:21:47;;;;;;;7.57;4.28;;;32.70;66.60;;;;;;4763246;29;20063;-81
2023/07/16 15:24:16;;;;;;;8.27;4.60;;;32.70;67.50;;;;;;4768607;29;20055;-81
2023/07/16 15:26:44;;;;;;;8.40;4.53;;;32.70;67.60;;;;;;4778632;29;20075;-82
2023/07/16 15:29:12;;;;;;;6.85;4.53;;;32.70;68.20;;;;;;4767952;29;20054;-81
2023/07/16 15:31:39;;;;;;;5.10;4.53;;;32.70;68.10;;;;;;4780424;29;20059;-80
2023/07/16 15:34:08;;;;;;;7.80;5.22;;;32.70;68.70;;;;;;4782395;29;20074;-81
2023/07/16 15:36:37;;;;;;;8.23;4.70;;;32.60;68.20;;;;;;4776590;29;20040;-82
2023/07/16 15:39:07;;;;;;;8.55;4.50;;;32.60;68.30;;;;;;4759598;29;20058;-81
2023/07/16 15:41:35;;;;;;;5.03;4.40;;;32.60;69.20;;;;;;4769602;29;20485;-82
2023/07/16 15:44:03;;;;;;;8.63;4.78;;;32.40;68.80;;;;;;4777335;29;20055;-81
2023/07/16 15:46:31;;;;;;;6.53;4.60;;;32.20;69.40;;;;;;4758512;29;20445;-80
2023/07/16 15:48:59;;;;;;;6.22;4.22;;;32.10;69.90;;;;;;4763243;29;20059;-81
2023/07/16 15:51:26;;;;;;;6.15;4.40;;;32.20;69.40;;;;;;4765559;30;20813;-81
2023/07/16 15:53:55;;;;;;;5.97;4.50;;;32.30;69.50;;;;;;4763421;29;20531;-82
2023/07/16 15:56:23;;;;;;;5.50;4.53;;;32.30;69.30;;;;;;4765098;29;20121;-81
2023/07/16 15:58:51;;;;;;;6.75;4.05;;;32.30;69.70;;;;;;4767249;30;20096;-80
2023/07/16 16:01:19;;;;;;;6.15;4.25;;;32.30;69.40;;;;;;4766906;30;20080;-81
2023/07/16 16:03:47;;;;;;;8.02;4.30;;;32.30;69.50;;;;;;4763398;29;20063;-81
2023/07/16 16:06:14;;;;;;;7.70;4.57;;;32.20;69.00;;;;;;4768805;29;20101;-82
2023/07/16 16:08:43;;;;;;;5.40;4.13;;;32.10;69.30;;;;;;4766998;29;20150;-81
2023/07/16 16:11:10;;;;;;;4.72;4.32;;;32.00;70.30;;;;;;4759451;29;20067;-81
2023/07/16 16:13:38;;;;;;;4.80;4.10;;;31.90;70.90;;;;;;4763489;29;20089;-80
2023/07/16 16:16:06;;;;;;;4.53;4.03;;;31.80;72.00;;;;;;4761607;29;20044;-80
2023/07/16 16:18:34;;;;;;;9.63;4.93;;;31.80;70.50;;;;;;4769406;29;20146;-81
2023/07/16 16:21:03;;;;;;;7.22;5.07;;;31.90;70.30;;;;;;4759941;29;20052;-81
2023/07/16 16:23:31;;;;;;;6.03;4.15;;;32.00;69.80;;;;;;4766289;29;20062;-81
2023/07/16 16:25:58;;;;;;;5.38;4.28;;;32.00;69.20;;;;;;4769529;30;20054;-81
2023/07/16 16:28:26;;;;;;;6.07;4.00;;;32.00;70.30;;;;;;4763746;30;20058;-81
2023/07/16 16:30:54;;;;;;;5.68;4.50;;;32.00;70.60;;;;;;4763113;29;20116;-81
2023/07/16 16:33:22;;;;;;;7.00;5.13;;;32.00;70.30;;;;;;4771504;29;20058;-81
2023/07/16 16:35:49;;;;;;;7.65;4.45;;;32.00;69.90;;;;;;4763522;29;20051;-80
2023/07/16 16:38:17;;;;;;;7.53;4.70;;;31.90;70.20;;;;;;4760934;29;20059;-80
2023/07/16 16:40:44;;;;;;;7.22;4.72;;;31.90;70.50;;;;;;4768017;29;20138;-81
2023/07/16 16:43:12;;;;;;;6.93;4.68;;;31.90;71.10;;;;;;4777774;29;20052;-81
2023/07/16 16:45:41;;;;;;;5.45;4.75;;;31.90;71.40;;;;;;4763827;29;20480;-81
2023/07/16 16:48:10;;;;;;;6.22;4.95;;;31.90;71.90;;;;;;4762055;29;20046;-80
2023/07/16 16:50:38;;;;;;;7.22;4.95;;;31.90;72.10;;;;;;4778204;29;20051;-80